createdAt,value
2023-04-18T00:01:51.918Z,55.76
2023-04-18T00:04:24.934Z,56.04
2023-04-18T00:06:53.373Z,55.79
2023-04-18T00:09:20.380Z,55.85
2023-04-18T00:11:47.071Z,55.33
2023-04-18T00:14:30.862Z,55.03
2023-04-18T00:17:18.354Z,55.42
2023-04-18T00:19:45.645Z,55.36
2023-04-18T00:22:13.381Z,55.13
2023-04-18T00:24:45.988Z,54.44
2023-04-18T00:27:28.262Z,55.18
2023-04-18T00:30:08.874Z,54.66
2023-04-18T00:32:35.957Z,54.33
2023-04-18T00:35:17.562Z,54.22
2023-04-18T00:37:44.391Z,54.20
2023-04-18T00:40:22.719Z,54.36
2023-04-18T00:44:22.349Z,53.73
2023-04-18T00:45:54.272Z,54.17
2023-04-18T00:48:37.921Z,53.95
2023-04-18T00:51:09.691Z,54.23
2023-04-18T00:53:53.631Z,54.12
2023-04-18T00:56:30.989Z,54.10
2023-04-18T00:59:13.544Z,53.77
2023-04-18T01:01:43.803Z,54.07
2023-04-18T01:04:18.295Z,53.87
2023-04-18T01:07:08.503Z,53.76
2023-04-18T01:09:48.068Z,53.47
2023-04-18T01:12:14.824Z,53.54
2023-04-18T01:17:58.655Z,53.17
2023-04-18T01:20:26.421Z,53.60
2023-04-18T01:22:53.581Z,53.49
2023-04-18T01:25:41.278Z,53.48
2023-04-18T01:28:15.184Z,53.26
2023-04-18T01:30:46.797Z,53.08
2023-04-18T01:33:18.479Z,52.81
2023-04-18T01:35:53.851Z,52.72
2023-04-18T01:38:20.639Z,52.84
2023-04-18T01:41:06.576Z,52.54
2023-04-18T01:43:37.271Z,52.82
2023-04-18T01:46:25.419Z,52.62
2023-04-18T01:49:13.585Z,52.49
2023-04-18T01:51:55.252Z,51.83
2023-04-18T01:54:23.449Z,52.30
2023-04-18T01:56:50.286Z,51.65
2023-04-18T01:59:26.266Z,51.56
2023-04-18T02:01:53.114Z,51.83
2023-04-18T02:04:19.912Z,51.90
2023-04-18T02:06:46.964Z,51.55
2023-04-18T02:09:13.791Z,51.45
2023-04-18T02:11:40.566Z,51.12
2023-04-18T02:14:15.715Z,51.38
2023-04-18T02:16:45.876Z,51.07
2023-04-18T02:19:17.969Z,51.64
2023-04-18T02:21:47.468Z,51.46
2023-04-18T02:24:14.552Z,51.58
2023-04-18T02:26:44.633Z,51.42
2023-04-18T02:32:05.883Z,51.58
2023-04-18T02:34:33.782Z,51.66
2023-04-18T02:37:03.036Z,51.74
2023-04-18T02:39:30.300Z,51.63
2023-04-18T02:41:57.155Z,51.58
2023-04-18T02:44:29.910Z,51.77
2023-04-18T02:47:02.646Z,51.96
2023-04-18T02:49:35.415Z,51.86
2023-04-18T02:52:07.868Z,52.13
2023-04-18T02:54:37.613Z,52.23
2023-04-18T02:57:04.340Z,52.04
2023-04-18T02:59:33.696Z,52.12
2023-04-18T03:02:07.358Z,52.21
2023-04-18T03:04:34.195Z,52.00
2023-04-18T03:07:01.097Z,52.26
2023-04-18T03:09:28.299Z,52.14
2023-04-18T03:11:58.118Z,51.97
2023-04-18T03:14:24.971Z,51.78
2023-04-18T03:16:55.578Z,52.03
2023-04-18T03:19:22.452Z,52.77
2023-04-18T03:21:59.152Z,52.52
2023-04-18T03:24:28.710Z,53.14
2023-04-18T03:26:55.766Z,52.72
2023-04-18T03:29:32.398Z,53.05
2023-04-18T03:32:01.825Z,53.09
2023-04-18T03:34:28.758Z,52.55
2023-04-18T03:36:59.748Z,52.43
2023-04-18T03:39:26.463Z,52.42
2023-04-18T03:41:54.602Z,52.85
2023-04-18T03:44:24.492Z,52.74
2023-04-18T03:46:57.176Z,53.17
2023-04-18T03:49:24.658Z,52.53
2023-04-18T03:51:52.164Z,52.53
2023-04-18T03:54:19.331Z,52.73
2023-04-18T03:56:46.477Z,52.44
2023-04-18T03:59:14.686Z,52.62
2023-04-18T04:01:46.987Z,52.68
2023-04-18T04:04:18.037Z,53.00
2023-04-18T04:06:51.475Z,53.22
2023-04-18T04:09:20.213Z,53.06
2023-04-18T04:11:50.104Z,52.97
2023-04-18T04:14:25.420Z,53.39
2023-04-18T04:17:04.763Z,53.61
2023-04-18T04:19:31.453Z,53.62
2023-04-18T04:21:58.188Z,53.66
2023-04-18T04:24:33.121Z,53.15
2023-04-18T04:29:52.329Z,53.19
2023-04-18T04:32:20.457Z,53.04
2023-04-18T04:34:47.591Z,53.16
2023-04-18T04:37:35.791Z,52.95
2023-04-18T04:40:06.586Z,53.43
2023-04-18T04:42:35.939Z,53.41
2023-04-18T04:45:03.799Z,52.93
2023-04-18T04:47:48.074Z,53.66
2023-04-18T04:50:34.212Z,53.41
2023-04-18T04:53:02.972Z,52.94
2023-04-18T04:55:33.247Z,53.42
2023-04-18T04:58:00.315Z,53.87
2023-04-18T05:00:34.307Z,53.91
2023-04-18T05:03:02.287Z,53.52
2023-04-18T05:05:37.139Z,53.51
2023-04-18T05:08:04.278Z,53.24
2023-04-18T05:10:32.522Z,53.46
2023-04-18T05:12:59.396Z,53.42
2023-04-18T05:15:29.311Z,53.62
2023-04-18T05:18:19.218Z,53.28
2023-04-18T05:20:48.930Z,53.10
2023-04-18T05:23:16.870Z,53.55
2023-04-18T05:25:49.712Z,53.23
2023-04-18T05:28:18.916Z,53.19
2023-04-18T05:30:48.921Z,53.37
2023-04-18T05:33:16.070Z,53.15
2023-04-18T05:35:47.944Z,53.06
2023-04-18T05:38:14.611Z,53.78
2023-04-18T05:40:42.650Z,53.55
2023-04-18T05:43:11.528Z,53.37
2023-04-18T05:45:40.071Z,53.38
2023-04-18T05:48:07.973Z,53.36
2023-04-18T05:50:37.672Z,53.14
2023-04-18T05:53:04.545Z,52.91
2023-04-18T05:55:40.744Z,53.07
2023-04-18T05:58:21.018Z,53.01
2023-04-18T06:00:58.147Z,53.15
2023-04-18T06:03:27.063Z,52.55
2023-04-18T06:05:55.935Z,52.22
2023-04-18T06:08:22.787Z,52.07
2023-04-18T06:10:54.869Z,51.09
2023-04-18T06:13:27.531Z,50.97
2023-04-18T06:15:54.379Z,51.03
2023-04-18T06:18:21.483Z,51.28
2023-04-18T06:20:48.281Z,51.11
2023-04-18T06:23:15.172Z,50.29
2023-04-18T06:25:45.017Z,50.33
2023-04-18T06:28:17.662Z,50.45
2023-04-18T06:30:44.454Z,50.52
2023-04-18T06:33:36.864Z,50.33
2023-04-18T06:36:05.810Z,50.63
2023-04-18T06:38:41.017Z,50.74
2023-04-18T06:41:10.762Z,50.75
2023-04-18T06:43:49.177Z,50.15
2023-04-18T06:46:32.777Z,50.54
2023-04-18T06:49:04.537Z,50.80
2023-04-18T06:51:35.732Z,50.90
2023-04-18T06:54:05.024Z,50.36
2023-04-18T06:56:33.056Z,50.35
2023-04-18T06:59:01.440Z,50.55
2023-04-18T07:01:33.562Z,50.58
2023-04-18T07:04:13.138Z,50.86
2023-04-18T07:06:40.486Z,50.29
2023-04-18T07:09:10.210Z,50.03
2023-04-18T07:11:43.975Z,50.32
2023-04-18T07:14:17.007Z,49.82
2023-04-18T07:16:44.618Z,50.06
2023-04-18T07:19:13.965Z,50.19
2023-04-18T07:21:48.690Z,49.79
2023-04-18T07:24:27.909Z,49.44
2023-04-18T07:26:55.150Z,49.56
2023-04-18T07:29:22.081Z,50.15
2023-04-18T07:32:01.810Z,49.42
2023-04-18T07:34:38.289Z,49.71
2023-04-18T07:37:08.200Z,50.10
2023-04-18T07:42:20.045Z,50.31
2023-04-18T07:47:30.201Z,49.59
2023-04-18T07:50:07.586Z,49.56
2023-04-18T07:52:34.767Z,48.95
2023-04-18T07:55:04.017Z,49.21
2023-04-18T07:57:34.043Z,49.23
2023-04-18T08:00:02.476Z,49.62
2023-04-18T08:02:36.622Z,49.13
2023-04-18T08:05:09.582Z,49.82
2023-04-18T08:07:42.362Z,49.16
2023-04-18T08:10:23.746Z,48.29
2023-04-18T08:12:50.800Z,48.12
2023-04-18T08:15:17.553Z,48.43
2023-04-18T08:17:45.474Z,48.56
2023-04-18T08:20:13.053Z,48.62
2023-04-18T08:23:04.258Z,47.11
2023-04-18T08:25:37.689Z,47.17
2023-04-18T08:28:07.586Z,47.09
2023-04-18T08:30:43.235Z,46.91
2023-04-18T08:33:10.125Z,46.91
2023-04-18T08:35:39.882Z,46.23
2023-04-18T08:38:12.228Z,45.22
2023-04-18T08:43:23.012Z,44.40
2023-04-18T08:45:50.506Z,44.13
2023-04-18T08:48:18.043Z,44.08
2023-04-18T08:50:48.373Z,44.14
2023-04-18T08:53:17.113Z,44.11
2023-04-18T08:55:44.588Z,43.97
2023-04-18T08:58:12.554Z,43.83
2023-04-18T09:00:43.116Z,43.26
2023-04-18T09:03:18.210Z,43.24
2023-04-18T09:06:08.489Z,43.66
2023-04-18T09:08:35.621Z,43.48
2023-04-18T09:11:29.518Z,43.54
2023-04-18T09:13:59.140Z,43.85
2023-04-18T09:16:50.331Z,42.79
2023-04-18T09:19:19.832Z,42.96
2023-04-18T09:21:49.619Z,43.06
2023-04-18T09:24:28.540Z,42.78
2023-04-18T09:26:57.254Z,42.70
2023-04-18T09:29:43.578Z,42.59
2023-04-18T09:32:25.877Z,42.24
2023-04-18T09:35:00.207Z,42.34
2023-04-18T09:37:29.516Z,43.00
2023-04-18T09:40:00.384Z,43.91
2023-04-18T09:42:36.206Z,43.88
2023-04-18T09:45:04.916Z,43.70
2023-04-18T09:47:35.578Z,43.76
2023-04-18T09:50:07.712Z,43.69
2023-04-18T09:52:38.902Z,44.02
2023-04-18T09:55:17.053Z,43.64
2023-04-18T09:57:46.414Z,43.30
2023-04-18T10:00:25.339Z,42.95
2023-04-18T10:03:05.309Z,42.60
2023-04-18T10:05:35.339Z,42.60
2023-04-18T10:08:06.018Z,42.14
2023-04-18T10:10:33.094Z,42.11
2023-04-18T10:13:02.350Z,41.41
2023-04-18T10:15:30.942Z,41.08
2023-04-18T10:18:06.802Z,39.94
2023-04-18T10:20:35.402Z,40.61
2023-04-18T10:23:28.355Z,39.73
2023-04-18T10:25:55.210Z,39.73
2023-04-18T10:28:22.114Z,39.65
2023-04-18T10:30:52.600Z,40.17
2023-04-18T10:33:35.288Z,40.42
2023-04-18T10:36:25.494Z,40.40
2023-04-18T10:39:24.361Z,40.56
2023-04-18T10:41:58.453Z,40.40
2023-04-18T10:44:25.757Z,39.75
2023-04-18T10:47:00.080Z,39.27
2023-04-18T10:49:38.224Z,38.87
2023-04-18T10:52:08.765Z,39.57
2023-04-18T10:54:38.926Z,39.55
2023-04-18T10:57:13.200Z,39.43
2023-04-18T10:59:52.340Z,39.42
2023-04-18T11:05:09.981Z,39.42
2023-04-18T11:07:51.156Z,39.37
2023-04-18T11:10:30.547Z,38.14
2023-04-18T11:13:04.429Z,37.84
2023-04-18T11:15:31.883Z,37.61
2023-04-18T11:18:11.030Z,37.17
2023-04-18T11:20:49.216Z,37.13
2023-04-18T11:23:25.629Z,37.25
2023-04-18T11:26:05.908Z,36.41
2023-04-18T11:28:38.750Z,36.08
2023-04-18T11:31:08.747Z,36.66
2023-04-18T11:33:38.212Z,36.19
2023-04-18T11:36:05.772Z,35.11
2023-04-18T11:38:32.650Z,35.59
2023-04-18T11:41:02.572Z,36.15
2023-04-18T11:43:29.687Z,35.96
2023-04-18T11:45:58.460Z,35.79
2023-04-18T11:48:36.783Z,35.92
2023-04-18T11:51:15.649Z,36.39
2023-04-18T11:53:42.620Z,37.16
2023-04-18T11:56:15.473Z,37.59
2023-04-18T11:58:45.348Z,37.89
2023-04-18T12:01:20.624Z,38.68
2023-04-18T12:04:08.366Z,39.13
2023-04-18T12:06:52.169Z,39.24
2023-04-18T12:09:27.118Z,39.37
2023-04-18T12:12:01.937Z,39.21
2023-04-18T12:14:34.379Z,39.46
2023-04-18T12:17:03.635Z,39.18
2023-04-18T12:19:34.312Z,39.40
2023-04-18T12:22:05.399Z,39.65
2023-04-18T12:24:34.753Z,39.34
2023-04-18T12:27:02.012Z,39.64
2023-04-18T12:29:31.696Z,39.30
2023-04-18T12:31:58.671Z,39.27
2023-04-18T12:34:31.112Z,39.62
2023-04-18T12:37:02.113Z,39.93
2023-04-18T12:39:29.283Z,40.32
2023-04-18T12:42:06.564Z,40.45
2023-04-18T12:44:37.860Z,40.50
2023-04-18T12:47:14.694Z,40.70
2023-04-18T12:49:43.970Z,40.28
2023-04-18T12:52:18.328Z,40.78
2023-04-18T12:54:45.116Z,40.97
2023-04-18T12:57:11.957Z,41.40
2023-04-18T12:59:52.214Z,41.54
2023-04-18T13:02:21.829Z,41.60
2023-04-18T13:04:49.496Z,41.36
2023-04-18T13:07:19.791Z,41.71
2023-04-18T13:09:46.696Z,41.14
2023-04-18T13:12:16.804Z,41.29
2023-04-18T13:14:47.878Z,40.96
2023-04-18T13:17:18.222Z,41.30
2023-04-18T13:19:45.042Z,40.62
2023-04-18T13:22:11.904Z,40.31
2023-04-18T13:24:44.540Z,40.59
2023-04-18T13:27:11.382Z,40.32
2023-04-18T13:29:45.754Z,40.00
2023-04-18T13:32:15.952Z,40.43
2023-04-18T13:34:52.641Z,39.44
2023-04-18T13:37:19.363Z,39.82
2023-04-18T13:39:46.554Z,39.75
2023-04-18T13:42:16.435Z,39.93
2023-04-18T13:44:45.676Z,40.30
2023-04-18T13:47:15.863Z,40.13
2023-04-18T13:49:45.910Z,40.19
2023-04-18T13:52:12.974Z,40.39
2023-04-18T13:54:41.382Z,40.47
2023-04-18T13:57:11.710Z,40.59
2023-04-18T13:59:40.623Z,40.91
2023-04-18T14:02:08.346Z,41.33
2023-04-18T14:04:38.157Z,41.91
2023-04-18T14:07:24.990Z,41.95
2023-04-18T14:10:01.410Z,41.63
2023-04-18T14:12:31.812Z,40.85
2023-04-18T14:15:05.981Z,40.78
2023-04-18T14:17:32.812Z,41.39
2023-04-18T14:20:00.535Z,41.37
2023-04-18T14:22:33.226Z,41.43
2023-04-18T14:25:03.069Z,41.76
2023-04-18T14:27:30.529Z,41.27
2023-04-18T14:29:57.175Z,41.41
2023-04-18T14:32:24.112Z,41.80
2023-04-18T14:35:05.807Z,41.66
2023-04-18T14:37:32.366Z,42.09
2023-04-18T14:40:07.798Z,41.77
2023-04-18T14:42:42.578Z,42.03
2023-04-18T14:45:13.979Z,41.54
2023-04-18T14:47:48.427Z,42.48
2023-04-18T14:51:09.865Z,41.69
2023-04-18T14:53:11.194Z,42.08
2023-04-18T14:55:44.758Z,41.92
2023-04-18T14:58:11.547Z,42.26
2023-04-18T15:00:38.189Z,42.39
2023-04-18T15:03:12.734Z,42.57
2023-04-18T15:05:48.427Z,43.40
2023-04-18T15:08:21.503Z,43.41
2023-04-18T15:10:53.965Z,43.28
2023-04-18T15:13:20.710Z,43.90
2023-04-18T15:16:02.052Z,44.11
2023-04-18T15:18:28.976Z,43.95
2023-04-18T15:21:02.994Z,43.63
2023-04-18T15:23:34.400Z,43.61
2023-04-18T15:26:01.850Z,43.94
2023-04-18T15:28:40.704Z,44.01
2023-04-18T15:31:07.826Z,44.30
2023-04-18T15:33:37.638Z,44.27
2023-04-18T15:36:04.447Z,44.13
2023-04-18T15:38:32.848Z,44.34
2023-04-18T15:41:00.103Z,44.32
2023-04-18T15:43:32.319Z,43.91
2023-04-18T15:45:59.422Z,44.13
2023-04-18T15:48:26.953Z,44.38
2023-04-18T15:50:53.653Z,44.07
2023-04-18T15:53:28.743Z,43.50
2023-04-18T15:55:59.913Z,43.91
2023-04-18T15:58:30.119Z,43.74
2023-04-18T16:01:02.778Z,43.86
2023-04-18T16:03:30.849Z,43.05
2023-04-18T16:05:57.890Z,43.11
2023-04-18T16:08:26.783Z,43.42
2023-04-18T16:11:10.628Z,43.13
2023-04-18T16:13:38.457Z,43.60
2023-04-18T16:16:09.544Z,43.65
2023-04-18T16:18:36.808Z,43.65
2023-04-18T16:21:08.097Z,43.30
2023-04-18T16:23:34.833Z,43.19
2023-04-18T16:26:06.746Z,42.29
2023-04-18T16:28:37.698Z,42.42
2023-04-18T16:31:10.124Z,42.39
2023-04-18T16:33:39.837Z,42.69
2023-04-18T16:36:09.908Z,42.74
2023-04-18T16:38:36.460Z,43.10
2023-04-18T16:41:03.684Z,42.95
2023-04-18T16:43:36.530Z,43.43
2023-04-18T16:46:12.113Z,43.74
2023-04-18T16:48:46.733Z,43.31
2023-04-18T16:51:13.412Z,43.27
2023-04-18T16:53:40.003Z,44.02
2023-04-18T16:56:08.217Z,43.51
2023-04-18T16:58:36.997Z,43.67
2023-04-18T17:03:42.061Z,44.20
2023-04-18T17:06:18.036Z,44.00
2023-04-18T17:08:44.710Z,43.98
2023-04-18T17:11:21.591Z,43.84
2023-04-18T17:13:54.998Z,44.02
2023-04-18T17:16:21.966Z,44.05
2023-04-18T17:18:48.736Z,44.09
2023-04-18T17:21:23.045Z,44.33
2023-04-18T17:23:55.848Z,44.59
2023-04-18T17:26:24.417Z,44.82
2023-04-18T17:28:54.073Z,45.30
2023-04-18T17:31:27.955Z,45.44
2023-04-18T17:33:57.822Z,45.35
2023-04-18T17:36:24.788Z,45.44
2023-04-18T17:39:10.452Z,45.41
2023-04-18T17:41:46.754Z,45.61
2023-04-18T17:44:13.317Z,45.39
2023-04-18T17:46:42.668Z,45.09
2023-04-18T17:49:13.315Z,45.42
2023-04-18T17:51:48.158Z,45.44
2023-04-18T17:54:17.928Z,45.34
2023-04-18T17:56:50.656Z,45.45
2023-04-18T17:59:48.305Z,45.51
2023-04-18T18:02:15.693Z,46.04
2023-04-18T18:04:48.969Z,46.16
2023-04-18T18:07:19.648Z,46.20
2023-04-18T18:09:46.501Z,46.47
2023-04-18T18:12:18.388Z,47.08
2023-04-18T18:14:49.412Z,46.93
2023-04-18T18:17:50.012Z,47.29
2023-04-18T18:20:17.717Z,47.27
2023-04-18T18:22:49.183Z,47.47
2023-04-18T18:25:16.033Z,47.68
2023-04-18T18:27:47.204Z,47.85
2023-04-18T18:30:14.094Z,47.89
2023-04-18T18:32:43.105Z,48.38
2023-04-18T18:35:19.217Z,48.75
2023-04-18T18:37:54.080Z,49.09
2023-04-18T18:40:21.398Z,49.76
2023-04-18T18:42:56.190Z,49.76
2023-04-18T18:45:23.793Z,49.77
2023-04-18T18:47:52.277Z,49.77
2023-04-18T18:50:22.124Z,49.72
2023-04-18T18:52:48.821Z,49.89
2023-04-18T18:55:16.570Z,50.16
2023-04-18T18:57:53.082Z,50.27
2023-04-18T19:00:25.574Z,49.87
2023-04-18T19:02:56.248Z,49.98
2023-04-18T19:05:23.529Z,50.07
2023-04-18T19:07:57.571Z,50.42
2023-04-18T19:10:37.025Z,50.21
2023-04-18T19:13:04.021Z,50.70
2023-04-18T19:15:35.876Z,50.41
2023-04-18T19:18:02.752Z,50.36
2023-04-18T19:20:32.183Z,50.53
2023-04-18T19:23:40.082Z,50.71
2023-04-18T19:26:09.673Z,50.62
2023-04-18T19:28:39.238Z,51.18
2023-04-18T19:31:06.046Z,50.86
2023-04-18T19:33:32.768Z,50.96
2023-04-18T19:35:59.538Z,51.35
2023-04-18T19:38:26.376Z,51.91
2023-04-18T19:40:55.501Z,52.16
2023-04-18T19:43:22.194Z,52.23
2023-04-18T19:45:50.299Z,52.23
2023-04-18T19:48:27.981Z,52.65
2023-04-18T19:50:59.020Z,52.99
2023-04-18T19:53:25.988Z,53.11
2023-04-18T19:55:56.403Z,53.45
2023-04-18T19:58:46.220Z,53.80
2023-04-18T20:01:24.281Z,53.60
2023-04-18T20:03:58.585Z,53.73
2023-04-18T20:06:29.492Z,53.86
2023-04-18T20:08:59.358Z,53.80
2023-04-18T20:11:29.566Z,54.73
2023-04-18T20:13:56.773Z,54.13
2023-04-18T20:16:24.298Z,54.18
2023-04-18T20:18:54.793Z,54.71
2023-04-18T20:21:22.734Z,54.64
2023-04-18T20:23:49.405Z,54.76
2023-04-18T20:26:18.606Z,54.82
2023-04-18T20:28:45.232Z,55.50
2023-04-18T20:31:20.684Z,55.46
2023-04-18T20:33:47.515Z,55.61
2023-04-18T20:36:16.395Z,55.66
2023-04-18T20:38:44.408Z,56.08
2023-04-18T20:41:15.032Z,56.06
2023-04-18T20:43:53.702Z,56.10
2023-04-18T20:46:20.595Z,56.29
2023-04-18T20:48:47.393Z,55.40
2023-04-18T20:51:41.946Z,55.44
2023-04-18T20:54:08.568Z,55.95
2023-04-18T20:56:51.414Z,55.61
2023-04-18T20:59:26.999Z,55.65
2023-04-18T21:01:54.214Z,56.03
2023-04-18T21:04:21.582Z,56.30
2023-04-18T21:06:52.486Z,55.83
2023-04-18T21:09:26.649Z,56.21
2023-04-18T21:12:01.208Z,56.11
2023-04-18T21:14:33.994Z,56.83
2023-04-18T21:17:00.848Z,56.64
2023-04-18T21:19:27.626Z,56.77
2023-04-18T21:22:12.648Z,56.91
2023-04-18T21:24:45.077Z,57.03
2023-04-18T21:27:14.307Z,56.88
2023-04-18T21:29:40.986Z,56.56
2023-04-18T21:32:07.918Z,57.23
2023-04-18T21:34:34.648Z,56.95
2023-04-18T21:37:14.868Z,56.62
2023-04-18T21:39:42.627Z,56.22
2023-04-18T21:42:18.864Z,56.30
2023-04-18T21:44:45.504Z,56.75
2023-04-18T21:47:12.084Z,56.83
2023-04-18T21:49:38.772Z,56.91
2023-04-18T21:52:27.949Z,57.40
2023-04-18T21:55:00.973Z,57.29
2023-04-18T21:57:37.641Z,57.49
2023-04-18T22:00:21.139Z,57.70
2023-04-18T22:02:57.328Z,57.40
2023-04-18T22:05:26.892Z,56.80
2023-04-18T22:08:03.343Z,57.22
2023-04-18T22:10:30.200Z,57.78
2023-04-18T22:12:57.727Z,58.05
2023-04-18T22:15:27.494Z,57.78
2023-04-18T22:17:54.499Z,58.07
2023-04-18T22:20:25.916Z,58.51
2023-04-18T22:23:03.873Z,58.59
2023-04-18T22:25:34.259Z,58.86
2023-04-18T22:28:13.561Z,58.45
2023-04-18T22:30:54.933Z,57.87
2023-04-18T22:33:31.693Z,58.83
2023-04-18T22:36:06.282Z,58.76
2023-04-18T22:38:33.983Z,58.98
2023-04-18T22:41:13.123Z,58.84
2023-04-18T22:43:39.786Z,59.26
2023-04-18T22:46:10.776Z,58.88
2023-04-18T22:48:38.598Z,59.33
2023-04-18T22:51:23.830Z,59.34
2023-04-18T22:53:50.643Z,59.17
2023-04-18T22:56:25.087Z,59.43
2023-04-18T22:58:51.863Z,59.30
2023-04-18T23:01:21.735Z,59.38
2023-04-18T23:03:48.518Z,59.25
2023-04-18T23:06:24.500Z,59.16
2023-04-18T23:08:59.933Z,58.41
2023-04-18T23:11:37.375Z,57.63
2023-04-18T23:14:04.094Z,58.32
2023-04-18T23:16:33.684Z,58.07
2023-04-18T23:19:00.872Z,57.66
2023-04-18T23:21:32.494Z,57.92
2023-04-18T23:23:59.650Z,57.60
2023-04-18T23:26:29.397Z,57.97
2023-04-18T23:28:57.585Z,58.08
2023-04-18T23:31:29.689Z,57.40
2023-04-18T23:34:16.830Z,57.36
2023-04-18T23:36:43.785Z,57.23
2023-04-18T23:39:42.571Z,57.85
2023-04-18T23:42:12.605Z,57.39
2023-04-18T23:44:44.660Z,56.40
2023-04-18T23:47:11.398Z,56.46
2023-04-18T23:49:38.076Z,56.53
2023-04-18T23:52:07.790Z,56.25
2023-04-18T23:54:37.179Z,56.49
2023-04-18T23:57:03.783Z,56.64
2023-04-18T23:59:32.192Z,58.08
